KBOI/BOI METAR and TAF weather

Enter ICAO airport designator
Station Type Date Time Source
KBOI METAR 2018/12/10 18:53 UTC NOAA

KBOI 101853Z 32006KT 10SM BKN045 OVC055 01/M04 A3030 RMK AO2 SLP282 T00061039


Station Type Date Time Source
KBOI Decoded METAR 2018/12/10 18:53 UTC NOAA

BOISE AIR TERMINAL, ID, United States (KBOI) 43-34N 116-14W 875M
Dec 10, 2018 - 01:53 PM EST / 2018.12.10 1853 UTC
Wind: from the NW (320 degrees) at 7 MPH (6 KT):0
Visibility: 10 mile(s):0
Sky conditions: overcast
Temperature: 33.1 F (0.6 C)
Windchill: 26 F (-3 C):1
Dew Point: 25.0 F (-3.9 C)
Relative Humidity: 71%
Pressure (altimeter): 30.3 in. Hg (1026 hPa)
ob: KBOI 101853Z 32006KT 10SM BKN045 OVC055 01/M04 A3030 RMK AO2 SLP282 T00061039
cycle: 19

Station Type Date Time Source
KBOI TAF 2018/12/10 18:24 UTC NOAA

TAF
AMD KBOI 101822Z 1018/1118 14004KT P6SM VCSH OVC050
FM101900 15002KT 5SM -SN BR OVC035
FM102100 30002KT P6SM OVC050
TEMPO 1021/1024 2SM -SN OVC025
FM110600 VRB03KT P6SM VCFG OVC050


Example: see airport list